Time;durP1;ratioP1;P1;durP2;ratioP2;P2;SDS_P1;SDS_P2;PMS_P1;PMS_P2;Temp;Humidity;BMP_temperature;BMP_pressure;BME280_temperature;BME280_humidity;BME280_pressure;Samples;Min_cycle;Max_cycle;Signal;HPM_P1;HPM_P2
2023/06/03 00:01:58;;;;;;;10.07;5.40;;;16.10;99.90;;;;;;5073153;28;20547;-68
2023/06/03 00:04:23;;;;;;;10.23;5.40;;;15.90;99.90;;;;;;5077463;28;20411;-68
2023/06/03 00:06:49;;;;;;;6.20;5.60;;;16.00;99.90;;;;;;5078743;28;20190;-68
2023/06/03 00:09:15;;;;;;;7.77;5.50;;;16.00;99.90;;;;;;5079516;28;20244;-67
2023/06/03 00:11:42;;;;;;;7.57;5.77;;;16.00;99.90;;;;;;5078400;28;20659;-67
2023/06/03 00:14:08;;;;;;;6.33;4.90;;;16.00;99.90;;;;;;5077801;28;20220;-67
2023/06/03 00:16:33;;;;;;;8.50;6.00;;;15.90;99.90;;;;;;5077218;28;20499;-67
2023/06/03 00:18:59;;;;;;;12.40;5.70;;;15.70;99.90;;;;;;5078235;28;20928;-67
2023/06/03 00:21:25;;;;;;;8.07;5.90;;;15.70;99.90;;;;;;5079939;28;20350;-68
2023/06/03 00:23:50;;;;;;;10.87;5.70;;;15.60;99.90;;;;;;5077790;28;20172;-67
2023/06/03 00:26:16;;;;;;;8.37;5.60;;;15.50;99.90;;;;;;5074808;28;20169;-67
2023/06/03 00:28:42;;;;;;;13.30;5.90;;;15.60;99.90;;;;;;5072905;28;20575;-67
2023/06/03 00:31:08;;;;;;;7.47;4.90;;;15.50;99.90;;;;;;5072205;28;20206;-67
2023/06/03 00:33:33;;;;;;;9.67;4.80;;;15.60;99.90;;;;;;5054139;28;20449;-67
2023/06/03 00:35:59;;;;;;;9.33;5.73;;;15.60;99.90;;;;;;5072053;28;20181;-67
2023/06/03 00:38:24;;;;;;;7.63;5.70;;;15.60;99.90;;;;;;5053801;28;20232;-67
2023/06/03 00:40:50;;;;;;;6.83;5.90;;;15.60;99.90;;;;;;5071566;28;20180;-67
2023/06/03 00:43:15;;;;;;;8.23;5.47;;;15.60;99.90;;;;;;5072803;28;20191;-67
2023/06/03 00:45:41;;;;;;;8.70;6.10;;;15.50;99.90;;;;;;5057177;28;20201;-67
2023/06/03 00:48:07;;;;;;;10.40;6.20;;;15.50;99.90;;;;;;5075107;28;20291;-67
2023/06/03 00:50:33;;;;;;;8.40;5.33;;;15.40;99.90;;;;;;5075160;28;20161;-67
2023/06/03 00:53:00;;;;;;;8.00;5.50;;;15.40;99.90;;;;;;5075487;28;20543;-67
2023/06/03 00:55:26;;;;;;;8.13;5.37;;;15.30;99.90;;;;;;5074932;28;20426;-67
2023/06/03 00:57:52;;;;;;;6.47;5.27;;;15.40;99.90;;;;;;5057077;28;20442;-67
2023/06/03 01:00:18;;;;;;;6.57;5.57;;;15.30;99.90;;;;;;5074769;28;20184;-67
2023/06/03 01:02:44;;;;;;;9.37;5.93;;;15.40;99.90;;;;;;5074887;28;20448;-67
2023/06/03 01:05:11;;;;;;;6.60;5.00;;;15.40;99.90;;;;;;5074589;28;20167;-66
2023/06/03 01:08:00;;;;;;;8.50;5.10;;;15.30;99.90;;;;;;5074865;28;20196;-66
2023/06/03 01:10:53;;;;;;;7.03;5.63;;;15.30;99.90;;;;;;5074597;28;20377;-67
2023/06/03 01:13:42;;;;;;;7.47;5.50;;;15.30;99.90;;;;;;5075009;28;20380;-67
2023/06/03 01:16:08;;;;;;;9.70;5.87;;;15.30;99.90;;;;;;5056694;28;20417;-67
2023/06/03 01:18:35;;;;;;;9.20;5.70;;;15.40;99.90;;;;;;5074476;28;20439;-66
2023/06/03 01:21:02;;;;;;;8.83;5.33;;;15.30;99.90;;;;;;5074709;28;20758;-67
2023/06/03 01:23:33;;;;;;;11.23;5.53;;;15.30;99.90;;;;;;5074530;28;20495;-67
2023/06/03 01:26:04;;;;;;;8.40;5.53;;;15.30;99.90;;;;;;5074315;28;20762;-67
2023/06/03 01:28:31;;;;;;;7.70;4.80;;;15.30;99.90;;;;;;5074600;28;20427;-67
2023/06/03 01:30:58;;;;;;;8.30;4.40;;;15.30;99.90;;;;;;5074619;28;20919;-67
2023/06/03 01:33:25;;;;;;;10.87;5.90;;;15.30;99.90;;;;;;5074572;28;20484;-67
2023/06/03 01:35:53;;;;;;;7.20;5.10;;;15.30;99.90;;;;;;5074258;28;20502;-67
2023/06/03 01:38:20;;;;;;;10.43;5.40;;;15.20;99.90;;;;;;5074319;28;20446;-67
2023/06/03 01:40:46;;;;;;;8.33;5.20;;;15.10;99.90;;;;;;5073830;28;20408;-67
2023/06/03 01:43:11;;;;;;;9.70;5.60;;;15.10;99.90;;;;;;5073933;28;20456;-66
2023/06/03 01:45:37;;;;;;;5.47;4.40;;;15.10;99.90;;;;;;5074454;28;20442;-66
2023/06/03 01:48:04;;;;;;;10.67;5.00;;;15.10;99.90;;;;;;5074146;28;20277;-68
2023/06/03 01:50:29;;;;;;;9.00;5.00;;;15.10;99.90;;;;;;5074399;28;20406;-67
2023/06/03 01:52:55;;;;;;;7.70;5.13;;;15.10;99.90;;;;;;5074024;28;20908;-66
2023/06/03 01:55:21;;;;;;;8.47;5.73;;;14.90;99.90;;;;;;5072606;28;20172;-70
2023/06/03 01:57:49;;;;;;;9.30;5.87;;;14.80;99.90;;;;;;5073549;28;20280;-66
2023/06/03 02:00:16;;;;;;;8.57;5.50;;;14.70;99.90;;;;;;5073821;28;20172;-68
2023/06/03 02:02:42;;;;;;;7.33;5.10;;;14.70;99.90;;;;;;5074073;28;20535;-66
2023/06/03 02:05:08;;;;;;;15.30;6.33;;;14.70;99.90;;;;;;5073892;28;20410;-67
2023/06/03 02:07:34;;;;;;;8.50;5.57;;;14.70;99.90;;;;;;5073641;28;20435;-67
2023/06/03 02:10:01;;;;;;;12.30;5.80;;;14.70;99.90;;;;;;5073900;28;20283;-66
2023/06/03 02:12:26;;;;;;;9.37;5.00;;;14.50;99.90;;;;;;5073442;28;20415;-67
2023/06/03 02:14:53;;;;;;;7.87;4.80;;;14.40;99.90;;;;;;5073645;28;20715;-66
2023/06/03 02:17:26;;;;;;;8.40;5.00;;;14.50;99.90;;;;;;5055453;28;20290;-67
2023/06/03 02:19:55;;;;;;;6.43;5.10;;;14.50;99.90;;;;;;5073840;28;20424;-67
2023/06/03 02:22:22;;;;;;;10.40;5.10;;;14.40;99.90;;;;;;5073435;28;20447;-66
2023/06/03 02:24:49;;;;;;;9.17;5.60;;;14.50;99.90;;;;;;5073623;28;20502;-67
2023/06/03 02:27:19;;;;;;;7.70;4.70;;;14.60;99.90;;;;;;5072844;28;20428;-67
2023/06/03 02:29:50;;;;;;;9.20;5.80;;;14.50;99.90;;;;;;5056244;28;20406;-67
2023/06/03 02:32:16;;;;;;;13.33;5.60;;;14.30;99.90;;;;;;5073894;28;20427;-68
2023/06/03 02:34:43;;;;;;;11.90;5.40;;;14.40;99.90;;;;;;5073109;28;20417;-67
2023/06/03 02:37:10;;;;;;;9.33;5.53;;;14.40;99.90;;;;;;5073285;28;20436;-68
2023/06/03 02:39:36;;;;;;;8.40;6.23;;;14.40;99.90;;;;;;5073113;28;20446;-68
2023/06/03 02:42:02;;;;;;;11.17;4.97;;;14.30;99.90;;;;;;5072473;28;20477;-68
2023/06/03 02:44:28;;;;;;;8.60;5.57;;;14.30;99.90;;;;;;5073165;28;20410;-67
2023/06/03 02:46:54;;;;;;;9.00;5.97;;;14.20;99.90;;;;;;5072832;28;20446;-67
2023/06/03 02:49:20;;;;;;;6.47;5.87;;;14.20;99.90;;;;;;5073085;28;20407;-68
2023/06/03 02:51:45;;;;;;;10.87;5.37;;;14.10;99.90;;;;;;5072676;28;20181;-68
2023/06/03 02:54:11;;;;;;;6.97;5.20;;;14.30;99.90;;;;;;5072588;28;20181;-68
2023/06/03 02:56:37;;;;;;;6.80;5.13;;;14.30;99.90;;;;;;5072497;28;20320;-68
2023/06/03 02:59:02;;;;;;;7.23;5.70;;;14.20;99.90;;;;;;5072699;28;20174;-68
2023/06/03 03:01:28;;;;;;;8.47;4.93;;;14.10;99.90;;;;;;5072863;28;20200;-68
2023/06/03 03:03:54;;;;;;;10.63;6.07;;;14.20;99.90;;;;;;5072919;28;20259;-67
2023/06/03 03:06:20;;;;;;;10.80;5.83;;;14.20;99.90;;;;;;5072462;28;20248;-69
2023/06/03 03:08:50;;;;;;;11.93;5.80;;;14.10;99.90;;;;;;5072577;28;20441;-68
2023/06/03 03:11:16;;;;;;;8.67;5.73;;;14.00;99.90;;;;;;5072325;28;20169;-67
2023/06/03 03:13:42;;;;;;;7.03;5.13;;;14.00;99.90;;;;;;5072873;28;20408;-67
2023/06/03 03:16:08;;;;;;;8.30;5.53;;;14.00;99.90;;;;;;5072346;28;20173;-67
2023/06/03 03:18:35;;;;;;;13.17;6.43;;;14.00;99.90;;;;;;5072670;28;20815;-67
2023/06/03 03:21:01;;;;;;;7.53;5.20;;;14.00;99.90;;;;;;5072280;28;20411;-68
2023/06/03 03:23:27;;;;;;;8.43;6.00;;;14.00;99.90;;;;;;5072725;28;20441;-67
2023/06/03 03:25:53;;;;;;;9.00;5.83;;;13.90;99.90;;;;;;5072005;28;20166;-67
2023/06/03 03:28:19;;;;;;;10.80;5.40;;;13.90;99.90;;;;;;5072303;28;20420;-67
2023/06/03 03:30:46;;;;;;;7.93;5.40;;;13.70;99.90;;;;;;5072871;28;20255;-67
2023/06/03 03:33:15;;;;;;;10.20;6.30;;;13.80;99.90;;;;;;5072685;28;20167;-68
2023/06/03 03:35:40;;;;;;;9.23;6.03;;;13.80;99.90;;;;;;5072246;28;20411;-67
2023/06/03 03:38:07;;;;;;;8.20;6.27;;;13.80;99.90;;;;;;5072132;28;20436;-67
2023/06/03 03:40:35;;;;;;;8.73;5.60;;;13.80;99.90;;;;;;5072279;28;20175;-67
2023/06/03 03:43:02;;;;;;;8.97;5.47;;;13.80;99.90;;;;;;5071833;28;20450;-67
2023/06/03 03:45:37;;;;;;;7.97;6.13;;;13.70;99.90;;;;;;5072475;28;20411;-67
2023/06/03 03:48:05;;;;;;;9.07;5.63;;;13.80;99.90;;;;;;5072426;28;20543;-67
2023/06/03 03:50:36;;;;;;;8.50;6.20;;;13.80;99.90;;;;;;5072100;28;20835;-66
2023/06/03 03:53:04;;;;;;;11.17;5.57;;;13.70;99.90;;;;;;5051929;28;20420;-67
2023/06/03 03:55:30;;;;;;;10.73;6.07;;;13.60;99.90;;;;;;5072126;28;20407;-67
2023/06/03 03:57:56;;;;;;;7.60;5.40;;;13.60;99.90;;;;;;5071759;28;20485;-66
2023/06/03 04:00:22;;;;;;;9.50;5.50;;;13.50;99.90;;;;;;5072062;28;20196;-67
2023/06/03 04:02:53;;;;;;;11.13;6.10;;;13.50;99.90;;;;;;5072192;28;20289;-67
2023/06/03 04:05:23;;;;;;;6.80;5.20;;;13.70;99.90;;;;;;5055278;28;20388;-66
2023/06/03 04:07:49;;;;;;;10.30;5.77;;;13.80;99.90;;;;;;5071960;28;20457;-67
2023/06/03 04:10:15;;;;;;;8.47;5.70;;;13.80;99.90;;;;;;5071944;28;20897;-67
2023/06/03 04:12:40;;;;;;;11.43;6.00;;;13.90;99.90;;;;;;5071536;28;20409;-68
2023/06/03 04:15:07;;;;;;;8.13;5.90;;;13.80;99.90;;;;;;5072277;28;20181;-68
2023/06/03 04:17:37;;;;;;;9.70;6.30;;;13.80;99.90;;;;;;5071919;28;20234;-67
2023/06/03 04:20:09;;;;;;;8.90;5.60;;;13.90;99.90;;;;;;5076017;28;20882;-67
2023/06/03 04:22:35;;;;;;;12.00;5.67;;;13.90;99.90;;;;;;5075660;28;20448;-68
2023/06/03 04:25:07;;;;;;;11.97;5.90;;;13.90;99.90;;;;;;5075868;28;20452;-67
2023/06/03 04:27:32;;;;;;;6.40;5.43;;;14.00;99.90;;;;;;5075413;28;20458;-67
2023/06/03 04:29:58;;;;;;;8.73;5.50;;;14.00;99.90;;;;;;5076015;28;20511;-67
2023/06/03 04:32:24;;;;;;;8.23;5.73;;;14.00;99.90;;;;;;5075835;28;20323;-68
2023/06/03 04:34:54;;;;;;;7.37;5.60;;;14.10;99.90;;;;;;5075885;28;20197;-67
2023/06/03 04:37:20;;;;;;;9.20;5.30;;;14.20;99.90;;;;;;5075566;28;20201;-67
2023/06/03 04:39:46;;;;;;;6.63;5.10;;;14.20;99.90;;;;;;5075686;28;20422;-66
2023/06/03 04:42:12;;;;;;;8.60;6.00;;;14.30;99.90;;;;;;5074757;28;20952;-66
2023/06/03 04:44:42;;;;;;;8.33;5.53;;;14.40;99.90;;;;;;5056509;28;20469;-67
2023/06/03 04:47:11;;;;;;;10.03;6.30;;;14.60;99.90;;;;;;5075097;28;20572;-67
2023/06/03 04:49:40;;;;;;;6.67;5.00;;;14.70;99.90;;;;;;5075024;28;20436;-67
2023/06/03 04:52:10;;;;;;;9.80;6.17;;;14.70;99.90;;;;;;5074975;28;20411;-67
2023/06/03 04:54:37;;;;;;;11.03;5.50;;;14.70;99.90;;;;;;5074936;28;20411;-67
2023/06/03 04:57:03;;;;;;;8.17;5.70;;;14.90;99.90;;;;;;5074854;28;20428;-67
2023/06/03 04:59:28;;;;;;;9.90;5.80;;;15.00;99.90;;;;;;5075000;28;20399;-67
2023/06/03 05:01:54;;;;;;;10.33;6.20;;;15.00;99.90;;;;;;5074819;28;20814;-67
2023/06/03 05:04:20;;;;;;;9.00;5.37;;;15.00;99.90;;;;;;5075193;28;20167;-67
2023/06/03 05:06:49;;;;;;;6.00;5.37;;;15.10;99.90;;;;;;5074790;28;20203;-67
2023/06/03 05:09:15;;;;;;;9.20;5.73;;;15.30;99.90;;;;;;5075400;28;20313;-67
2023/06/03 05:11:42;;;;;;;9.07;6.07;;;15.40;99.90;;;;;;5074198;28;20953;-67
2023/06/03 05:14:08;;;;;;;6.83;5.37;;;15.50;99.90;;;;;;5075228;28;20413;-65
2023/06/03 05:19:02;;;;;;;8.03;6.63;;;15.70;99.90;;;;;;5133583;22;20914;-68
2023/06/03 05:21:27;;;;;;;6.90;5.60;;;15.70;99.90;;;;;;5115403;28;20552;-68
2023/06/03 05:23:53;;;;;;;8.97;5.30;;;15.90;99.90;;;;;;5115389;28;20254;-68
2023/06/03 05:26:18;;;;;;;6.70;4.90;;;15.90;99.90;;;;;;5114954;28;20169;-69
2023/06/03 05:28:45;;;;;;;7.10;5.47;;;16.10;99.90;;;;;;5097575;28;20184;-70
2023/06/03 05:31:11;;;;;;;7.30;5.80;;;16.20;99.90;;;;;;5116249;28;20199;-69
2023/06/03 05:33:36;;;;;;;11.20;5.83;;;16.20;99.90;;;;;;5115994;28;20760;-68
2023/06/03 05:36:02;;;;;;;10.20;5.33;;;15.90;99.90;;;;;;5115110;28;20167;-67
2023/06/03 05:38:30;;;;;;;10.73;5.90;;;16.10;99.90;;;;;;5097116;28;20189;-69
2023/06/03 05:40:56;;;;;;;7.53;4.97;;;16.20;99.90;;;;;;5094878;28;20488;-68
2023/06/03 05:43:23;;;;;;;8.90;5.47;;;16.30;99.90;;;;;;5094478;28;20809;-68
2023/06/03 05:45:49;;;;;;;8.87;5.77;;;16.40;99.90;;;;;;5095570;28;20189;-67
2023/06/03 05:48:15;;;;;;;11.70;6.10;;;16.40;99.90;;;;;;5095319;28;20423;-68
2023/06/03 05:50:49;;;;;;;8.57;5.20;;;16.70;99.90;;;;;;5094550;28;20487;-70
2023/06/03 05:53:14;;;;;;;9.23;5.67;;;16.70;99.90;;;;;;5093287;28;20525;-67
2023/06/03 05:55:40;;;;;;;7.90;5.87;;;16.70;99.90;;;;;;5095469;28;20411;-68
2023/06/03 05:58:05;;;;;;;9.67;5.80;;;16.90;99.90;;;;;;5094279;28;20177;-68
2023/06/03 06:00:31;;;;;;;6.63;5.67;;;16.90;99.90;;;;;;5094871;28;20177;-69
2023/06/03 06:02:56;;;;;;;8.23;5.93;;;16.70;99.90;;;;;;5094602;28;20197;-68
2023/06/03 06:05:22;;;;;;;11.37;5.40;;;16.80;99.90;;;;;;5095753;28;20248;-69
2023/06/03 06:07:48;;;;;;;10.40;5.80;;;16.80;99.90;;;;;;5094266;28;20201;-70
2023/06/03 06:10:13;;;;;;;8.87;5.70;;;16.90;99.90;;;;;;5094474;28;20248;-68
2023/06/03 06:12:39;;;;;;;7.63;5.87;;;16.90;99.90;;;;;;5093835;28;20204;-68
2023/06/03 06:15:05;;;;;;;7.77;5.33;;;17.10;99.90;;;;;;5094036;28;20644;-69
2023/06/03 06:17:31;;;;;;;12.27;6.63;;;17.30;99.90;;;;;;5093960;28;20746;-69
2023/06/03 06:19:56;;;;;;;7.63;5.50;;;17.30;99.90;;;;;;5093955;28;20764;-69
2023/06/03 06:22:22;;;;;;;10.87;6.33;;;17.30;99.90;;;;;;5094088;28;20623;-69
2023/06/03 06:24:47;;;;;;;11.10;6.40;;;17.40;99.90;;;;;;5093783;28;20169;-68
2023/06/03 06:27:13;;;;;;;9.83;5.60;;;17.20;99.90;;;;;;5093310;28;20227;-69
2023/06/03 06:29:38;;;;;;;14.90;6.37;;;16.90;99.90;;;;;;5094029;28;20180;-69
2023/06/03 06:32:05;;;;;;;8.73;6.23;;;17.20;99.90;;;;;;5093702;28;20188;-69
2023/06/03 06:34:33;;;;;;;11.50;5.90;;;17.10;99.90;;;;;;5093761;28;20170;-70
2023/06/03 06:36:59;;;;;;;8.07;5.50;;;17.10;99.90;;;;;;5093240;28;20467;-69
2023/06/03 06:39:33;;;;;;;6.57;4.60;;;16.90;99.90;;;;;;5093653;28;20944;-68
2023/06/03 06:42:12;;;;;;;7.13;5.37;;;17.00;99.90;;;;;;5092103;28;20849;-68
2023/06/03 06:44:46;;;;;;;6.53;5.10;;;17.40;99.90;;;;;;5093785;28;20415;-68
2023/06/03 06:47:22;;;;;;;7.90;5.10;;;17.60;99.90;;;;;;5093591;28;20411;-68
2023/06/03 06:49:54;;;;;;;6.13;4.90;;;17.30;99.90;;;;;;5093650;28;20376;-67
2023/06/03 06:52:21;;;;;;;7.20;5.50;;;17.00;99.90;;;;;;5093840;28;20411;-67
2023/06/03 06:54:47;;;;;;;6.87;5.60;;;17.00;99.90;;;;;;5093561;28;20403;-67
2023/06/03 06:57:21;;;;;;;12.03;5.70;;;17.10;99.90;;;;;;5093081;28;20481;-67
2023/06/03 06:59:47;;;;;;;11.53;6.03;;;17.30;99.90;;;;;;5093618;28;20153;-67
2023/06/03 07:02:12;;;;;;;11.17;6.07;;;17.30;99.90;;;;;;5093380;28;20439;-67
2023/06/03 07:04:38;;;;;;;7.67;5.53;;;17.30;99.90;;;;;;5093443;28;20407;-69
2023/06/03 07:07:04;;;;;;;7.10;5.37;;;17.40;99.90;;;;;;5093721;28;20197;-70
2023/06/03 07:09:29;;;;;;;9.80;5.37;;;17.60;99.90;;;;;;5093267;28;20256;-69
2023/06/03 07:11:57;;;;;;;8.97;5.90;;;17.50;99.90;;;;;;5095407;28;20403;-69
2023/06/03 07:14:22;;;;;;;9.07;5.57;;;17.60;99.90;;;;;;5093315;28;20173;-68
2023/06/03 07:16:48;;;;;;;9.50;5.40;;;17.90;99.90;;;;;;5096142;28;20410;-69
2023/06/03 07:19:14;;;;;;;9.87;5.47;;;17.90;99.90;;;;;;5095959;28;20166;-69
2023/06/03 07:21:44;;;;;;;11.20;5.50;;;18.00;99.90;;;;;;5096875;28;20454;-69
2023/06/03 07:24:11;;;;;;;13.00;5.77;;;18.00;99.90;;;;;;5094141;28;20468;-68
2023/06/03 07:26:39;;;;;;;9.00;5.80;;;18.20;99.90;;;;;;5092281;28;20419;-69
2023/06/03 07:29:05;;;;;;;6.80;5.13;;;18.20;99.90;;;;;;5093268;28;20415;-68
2023/06/03 07:31:35;;;;;;;6.13;5.33;;;18.10;99.90;;;;;;5092712;28;20406;-68
2023/06/03 07:34:01;;;;;;;7.20;5.27;;;18.20;99.90;;;;;;5093229;28;20156;-69
2023/06/03 07:36:27;;;;;;;7.50;5.57;;;18.10;99.90;;;;;;5092752;28;20403;-68
2023/06/03 07:39:11;;;;;;;9.33;6.43;;;18.10;99.90;;;;;;5092546;28;20481;-68
2023/06/03 07:41:51;;;;;;;6.93;5.50;;;18.20;99.90;;;;;;5092177;28;20203;-69
2023/06/03 07:44:29;;;;;;;12.90;6.60;;;18.40;99.90;;;;;;5093087;28;20378;-69
2023/06/03 07:46:59;;;;;;;8.03;5.70;;;18.50;99.90;;;;;;5092767;28;20422;-69
2023/06/03 07:49:25;;;;;;;10.60;6.20;;;18.60;99.90;;;;;;5092531;28;20798;-68
2023/06/03 07:51:52;;;;;;;7.73;5.50;;;18.80;99.90;;;;;;5092454;28;20411;-69
2023/06/03 07:54:18;;;;;;;13.20;5.13;;;19.00;99.90;;;;;;5095869;28;20169;-68
2023/06/03 07:56:45;;;;;;;9.20;6.50;;;18.70;99.90;;;;;;5096168;28;20418;-69
2023/06/03 07:59:15;;;;;;;5.87;5.00;;;18.60;99.90;;;;;;5097767;28;20248;-68
2023/06/03 08:01:42;;;;;;;9.70;6.57;;;18.50;99.90;;;;;;5100078;28;20477;-70
2023/06/03 08:04:35;;;;;;;9.90;5.70;;;18.70;99.90;;;;;;5099636;28;20435;-70
2023/06/03 08:07:02;;;;;;;7.67;6.00;;;18.80;99.90;;;;;;5099913;28;20426;-69
2023/06/03 08:09:29;;;;;;;7.30;5.93;;;19.00;99.90;;;;;;5081123;28;20418;-69
2023/06/03 08:12:00;;;;;;;12.87;7.07;;;18.90;99.90;;;;;;5080501;28;20414;-70
2023/06/03 08:14:29;;;;;;;10.70;6.00;;;19.10;99.90;;;;;;5100070;28;20730;-71
2023/06/03 08:17:00;;;;;;;8.43;5.63;;;19.30;99.80;;;;;;5096461;28;20414;-68
2023/06/03 08:19:26;;;;;;;13.20;6.20;;;19.10;99.90;;;;;;5096901;28;20394;-67
2023/06/03 08:21:52;;;;;;;7.40;5.67;;;19.10;99.90;;;;;;5096357;28;20795;-68
2023/06/03 08:24:17;;;;;;;12.37;5.90;;;19.10;99.90;;;;;;5096397;28;20512;-69
2023/06/03 08:26:45;;;;;;;6.27;5.17;;;19.40;99.80;;;;;;5095796;28;20442;-69
2023/06/03 08:29:11;;;;;;;8.90;5.63;;;19.80;99.90;;;;;;5096534;28;20184;-69
2023/06/03 08:31:37;;;;;;;11.40;6.67;;;20.10;99.10;;;;;;5097523;28;20905;-69
2023/06/03 08:34:03;;;;;;;7.90;5.60;;;20.20;99.00;;;;;;5096390;28;20414;-69
2023/06/03 08:36:29;;;;;;;10.67;6.00;;;20.20;98.50;;;;;;5096166;28;20178;-69
2023/06/03 08:38:55;;;;;;;8.77;5.73;;;20.30;98.80;;;;;;5096027;28;20418;-69
2023/06/03 08:41:27;;;;;;;8.00;5.70;;;20.40;98.10;;;;;;5095981;28;20403;-69
2023/06/03 08:44:08;;;;;;;11.70;6.20;;;20.20;98.50;;;;;;5095712;28;20244;-69
2023/06/03 08:46:53;;;;;;;8.27;6.73;;;20.10;98.90;;;;;;5096053;28;20384;-69
2023/06/03 08:49:27;;;;;;;8.20;5.43;;;20.40;98.80;;;;;;5095760;28;20823;-69
2023/06/03 08:51:55;;;;;;;7.30;6.10;;;20.80;98.20;;;;;;5095447;28;20396;-69
2023/06/03 08:54:23;;;;;;;9.00;5.70;;;20.90;97.70;;;;;;5095863;28;20842;-69
2023/06/03 08:56:56;;;;;;;7.77;5.80;;;20.60;97.80;;;;;;5095294;28;20403;-69
2023/06/03 08:59:24;;;;;;;7.33;5.57;;;20.40;98.60;;;;;;5095820;28;20384;-69
2023/06/03 09:01:55;;;;;;;6.50;5.30;;;20.40;98.30;;;;;;5095314;28;20537;-68
2023/06/03 09:04:21;;;;;;;8.97;6.03;;;20.60;98.30;;;;;;5095024;28;20456;-69
2023/06/03 09:06:48;;;;;;;8.30;6.00;;;20.70;98.00;;;;;;5095515;28;20496;-69
2023/06/03 09:09:15;;;;;;;7.97;5.40;;;21.00;97.80;;;;;;5095771;28;20407;-69
2023/06/03 09:11:42;;;;;;;9.00;5.60;;;20.70;97.90;;;;;;5095601;28;20449;-69
2023/06/03 09:14:10;;;;;;;9.93;6.17;;;20.90;98.30;;;;;;5095514;28;20812;-69
2023/06/03 09:16:36;;;;;;;8.13;5.87;;;21.10;97.90;;;;;;5095539;28;20408;-69
2023/06/03 09:19:02;;;;;;;8.00;5.73;;;21.20;97.00;;;;;;5094996;28;20454;-69
2023/06/03 09:21:28;;;;;;;6.07;5.00;;;21.30;97.20;;;;;;5095056;28;20469;-68
2023/06/03 09:23:54;;;;;;;11.73;6.47;;;21.50;97.00;;;;;;5094996;28;20391;-69
2023/06/03 09:26:21;;;;;;;10.70;7.33;;;21.50;96.50;;;;;;5094995;28;20161;-69
2023/06/03 09:28:47;;;;;;;9.67;6.80;;;21.40;96.80;;;;;;5094708;28;20560;-68
2023/06/03 09:31:13;;;;;;;8.77;5.90;;;21.30;96.70;;;;;;5096194;28;20399;-66
2023/06/03 09:33:40;;;;;;;8.17;6.20;;;21.30;97.30;;;;;;5095262;28;20901;-66
2023/06/03 09:36:13;;;;;;;7.27;6.10;;;21.40;97.10;;;;;;5094961;28;20498;-67
2023/06/03 09:38:49;;;;;;;9.10;6.40;;;21.50;96.90;;;;;;5094768;28;20560;-66
2023/06/03 09:41:18;;;;;;;9.50;6.77;;;21.70;96.50;;;;;;5094659;28;20387;-67
2023/06/03 09:43:57;;;;;;;7.77;6.33;;;22.00;96.60;;;;;;5094263;28;20907;-66
2023/06/03 09:46:24;;;;;;;9.93;6.80;;;22.20;96.10;;;;;;5094742;28;20748;-65
2023/06/03 09:48:50;;;;;;;9.73;6.73;;;22.00;96.20;;;;;;5094791;28;20431;-66
2023/06/03 09:51:16;;;;;;;8.73;6.10;;;22.20;96.20;;;;;;5094384;28;20818;-67
2023/06/03 09:53:41;;;;;;;8.30;6.83;;;22.30;96.00;;;;;;5094734;28;20715;-66
2023/06/03 09:56:25;;;;;;;7.97;6.30;;;22.30;96.00;;;;;;5094529;28;20172;-67
2023/06/03 09:58:53;;;;;;;8.57;6.07;;;22.40;96.10;;;;;;5094175;28;20200;-66
2023/06/03 10:01:30;;;;;;;7.90;6.47;;;22.50;95.80;;;;;;5094735;28;20894;-66
2023/06/03 10:04:00;;;;;;;8.53;6.10;;;22.70;95.30;;;;;;5094422;28;20812;-66
2023/06/03 10:06:26;;;;;;;10.93;6.27;;;22.70;95.70;;;;;;5094316;28;20399;-66
2023/06/03 10:08:52;;;;;;;10.33;7.33;;;22.80;95.00;;;;;;5094336;28;20424;-66
2023/06/03 10:11:17;;;;;;;7.40;6.13;;;22.70;94.80;;;;;;5094507;28;20403;-67
2023/06/03 10:13:44;;;;;;;7.97;6.60;;;22.80;94.90;;;;;;5093587;28;20662;-67
2023/06/03 10:16:11;;;;;;;8.43;6.40;;;23.00;95.10;;;;;;5093136;28;20180;-67
2023/06/03 10:18:39;;;;;;;11.53;6.83;;;22.60;94.90;;;;;;5094894;28;20443;-68
2023/06/03 10:21:12;;;;;;;8.43;6.80;;;22.50;95.60;;;;;;5076092;28;20937;-68
2023/06/03 10:23:45;;;;;;;6.87;6.17;;;22.90;95.50;;;;;;5094954;28;20412;-67
2023/06/03 10:26:16;;;;;;;8.67;6.37;;;23.20;94.70;;;;;;5094913;28;20376;-67
2023/06/03 10:28:48;;;;;;;6.20;5.60;;;23.60;94.90;;;;;;5075838;28;20493;-66
2023/06/03 10:31:15;;;;;;;8.23;6.80;;;23.70;93.60;;;;;;5094856;28;20957;-67
2023/06/03 10:33:41;;;;;;;8.87;6.00;;;23.60;93.90;;;;;;5093625;28;20453;-67
2023/06/03 10:36:07;;;;;;;6.97;6.30;;;23.60;93.70;;;;;;5093830;28;20480;-66
2023/06/03 10:38:33;;;;;;;8.43;6.53;;;23.70;93.90;;;;;;5094076;28;20945;-69
2023/06/03 10:41:01;;;;;;;6.73;6.00;;;24.00;93.70;;;;;;5094208;28;20396;-68
2023/06/03 10:43:29;;;;;;;7.50;6.40;;;24.00;93.60;;;;;;5093624;28;20515;-66
2023/06/03 10:45:57;;;;;;;6.60;5.97;;;24.10;93.30;;;;;;5094223;28;20449;-67
2023/06/03 10:48:24;;;;;;;7.10;6.17;;;23.90;92.90;;;;;;5094883;28;20419;-66
2023/06/03 10:51:27;;;;;;;6.63;5.70;;;23.70;92.80;;;;;;5094150;28;20425;-66
2023/06/03 10:54:18;;;;;;;7.10;6.43;;;23.70;93.10;;;;;;5098627;28;20919;-66
2023/06/03 10:56:55;;;;;;;7.30;6.60;;;23.90;92.90;;;;;;5096710;28;20469;-66
2023/06/03 10:59:23;;;;;;;9.27;6.93;;;24.00;92.70;;;;;;5063246;28;20392;-66
2023/06/03 11:02:02;;;;;;;6.93;6.33;;;24.00;92.70;;;;;;5098388;28;20736;-66
2023/06/03 11:04:35;;;;;;;10.70;6.33;;;24.40;92.10;;;;;;5079420;28;20403;-67
2023/06/03 11:07:33;;;;;;;10.77;6.67;;;24.60;91.90;;;;;;5098083;28;20466;-67
2023/06/03 11:10:00;;;;;;;11.27;7.77;;;24.90;91.00;;;;;;5078265;28;20417;-67
2023/06/03 11:12:49;;;;;;;7.33;6.13;;;24.70;90.90;;;;;;5096006;28;20762;-66
2023/06/03 11:15:15;;;;;;;7.63;6.83;;;25.00;90.50;;;;;;5095543;28;20419;-67
2023/06/03 11:17:43;;;;;;;8.77;6.70;;;25.10;90.80;;;;;;5076368;28;20566;-67
2023/06/03 11:20:09;;;;;;;7.30;6.60;;;25.20;90.00;;;;;;5093441;28;20419;-68
2023/06/03 11:22:37;;;;;;;7.27;6.57;;;25.20;89.00;;;;;;5092902;28;20438;-67
2023/06/03 11:25:03;;;;;;;8.60;6.87;;;24.70;89.00;;;;;;5093020;28;20252;-68
2023/06/03 11:27:29;;;;;;;6.70;6.00;;;25.10;88.80;;;;;;5092448;28;20427;-69
2023/06/03 11:29:59;;;;;;;9.00;6.87;;;26.10;86.20;;;;;;5093276;28;20456;-68
2023/06/03 11:32:27;;;;;;;7.60;6.67;;;26.50;84.90;;;;;;5093216;28;20776;-67
2023/06/03 11:34:59;;;;;;;8.80;6.03;;;27.80;81.40;;;;;;5093177;28;20403;-67
2023/06/03 11:37:52;;;;;;;9.60;6.50;;;29.10;77.60;;;;;;5092950;28;20431;-68
2023/06/03 11:40:19;;;;;;;6.40;5.80;;;30.60;71.50;;;;;;5093046;28;20769;-68
2023/06/03 11:42:48;;;;;;;8.60;5.37;;;32.00;67.80;;;;;;5092315;28;20451;-67
2023/06/03 11:47:59;;;;;;;10.03;6.33;;;31.30;63.50;;;;;;5092927;28;20415;-67
2023/06/03 11:50:29;;;;;;;7.30;5.70;;;30.90;62.50;;;;;;5093441;28;20384;-67
2023/06/03 11:52:56;;;;;;;9.50;6.20;;;29.60;64.60;;;;;;5092914;28;20480;-67
2023/06/03 11:55:25;;;;;;;7.07;5.70;;;28.20;69.00;;;;;;5093097;28;20561;-69
2023/06/03 11:57:51;;;;;;;8.30;5.60;;;28.10;68.70;;;;;;5092197;28;20431;-67
2023/06/03 12:00:18;;;;;;;6.77;5.80;;;29.30;66.30;;;;;;5090122;28;20414;-69
2023/06/03 12:02:47;;;;;;;5.40;4.90;;;30.40;62.60;;;;;;5092390;28;20189;-69
2023/06/03 12:05:17;;;;;;;8.60;5.50;;;31.30;60.70;;;;;;5092762;28;20515;-68
2023/06/03 12:08:01;;;;;;;6.93;5.60;;;31.60;59.30;;;;;;5092290;28;20427;-68
2023/06/03 12:10:27;;;;;;;9.30;5.80;;;32.20;57.80;;;;;;5092716;28;20399;-69
2023/06/03 12:12:54;;;;;;;8.10;5.83;;;31.40;58.80;;;;;;5092206;28;20882;-68
2023/06/03 12:15:21;;;;;;;6.80;6.03;;;30.10;60.50;;;;;;5092557;28;20460;-69
2023/06/03 12:17:47;;;;;;;7.60;6.80;;;28.20;64.20;;;;;;5092136;28;20435;-68
2023/06/03 12:20:26;;;;;;;7.27;5.90;;;27.30;67.90;;;;;;5092335;28;20430;-68
2023/06/03 12:23:01;;;;;;;7.13;6.43;;;26.90;68.10;;;;;;5092480;28;20446;-69
2023/06/03 12:25:30;;;;;;;6.60;6.00;;;26.50;69.80;;;;;;5092641;28;20410;-69
2023/06/03 12:27:56;;;;;;;6.97;6.27;;;26.50;69.40;;;;;;5091964;28;20949;-69
2023/06/03 12:30:32;;;;;;;6.90;5.73;;;26.60;69.10;;;;;;5092427;28;20748;-69
2023/06/03 12:32:59;;;;;;;7.77;5.67;;;26.90;69.00;;;;;;5092214;28;20402;-69
2023/06/03 12:35:26;;;;;;;6.33;5.80;;;27.10;68.40;;;;;;5092476;28;20494;-68
2023/06/03 12:38:08;;;;;;;7.60;6.30;;;27.20;67.80;;;;;;5091932;28;20820;-68
2023/06/03 12:40:35;;;;;;;9.30;7.10;;;27.30;67.10;;;;;;5095783;28;20437;-68
2023/06/03 12:43:02;;;;;;;7.33;6.63;;;27.80;64.60;;;;;;5095324;28;20869;-69
2023/06/03 12:45:28;;;;;;;6.37;5.60;;;28.60;63.60;;;;;;5096113;28;20467;-69
2023/06/03 12:47:55;;;;;;;6.47;5.87;;;30.30;61.60;;;;;;5095878;28;20921;-69
2023/06/03 12:50:22;;;;;;;5.83;5.20;;;33.30;58.90;;;;;;5095784;28;20161;-69
2023/06/03 12:52:49;;;;;;;5.83;5.27;;;33.80;54.10;;;;;;5095951;28;20426;-69
2023/06/03 12:55:16;;;;;;;8.37;6.00;;;33.40;53.20;;;;;;5096046;28;20436;-69
2023/06/03 12:57:43;;;;;;;6.73;6.00;;;31.80;54.90;;;;;;5095351;28;20483;-69